sensor_id;sensor_type;location;lat;lon;timestamp;P1;durP1;ratioP1;P2;durP2;ratioP2
2019;SDS011;1014;51.960;8.542;2022-08-11T00:01:45;24.43;;;22.83;;
2019;SDS011;1014;51.960;8.542;2022-08-11T00:04:13;24.83;;;23.40;;
2019;SDS011;1014;51.960;8.542;2022-08-11T00:06:41;23.60;;;22.27;;
2019;SDS011;1014;51.960;8.542;2022-08-11T00:09:10;23.33;;;22.00;;
2019;SDS011;1014;51.960;8.542;2022-08-11T00:11:40;23.57;;;22.37;;
2019;SDS011;1014;51.960;8.542;2022-08-11T00:14:12;23.40;;;22.30;;
2019;SDS011;1014;51.960;8.542;2022-08-11T00:16:40;24.73;;;23.43;;
2019;SDS011;1014;51.960;8.542;2022-08-11T00:19:08;25.57;;;24.17;;
2019;SDS011;1014;51.960;8.542;2022-08-11T00:21:39;23.97;;;22.67;;
2019;SDS011;1014;51.960;8.542;2022-08-11T00:24:07;25.70;;;24.43;;
2019;SDS011;1014;51.960;8.542;2022-08-11T00:26:35;25.33;;;23.97;;
2019;SDS011;1014;51.960;8.542;2022-08-11T00:29:08;25.43;;;23.90;;
2019;SDS011;1014;51.960;8.542;2022-08-11T00:31:36;25.00;;;23.70;;
2019;SDS011;1014;51.960;8.542;2022-08-11T00:34:08;25.20;;;23.90;;
2019;SDS011;1014;51.960;8.542;2022-08-11T00:36:37;24.23;;;23.00;;
2019;SDS011;1014;51.960;8.542;2022-08-11T00:39:05;24.57;;;23.27;;
2019;SDS011;1014;51.960;8.542;2022-08-11T00:41:35;25.53;;;24.07;;
2019;SDS011;1014;51.960;8.542;2022-08-11T00:46:56;24.90;;;23.70;;
2019;SDS011;1014;51.960;8.542;2022-08-11T00:49:29;25.70;;;24.20;;
2019;SDS011;1014;51.960;8.542;2022-08-11T00:52:07;25.07;;;23.77;;
2019;SDS011;1014;51.960;8.542;2022-08-11T01:00:18;23.60;;;22.33;;
2019;SDS011;1014;51.960;8.542;2022-08-11T01:02:56;23.00;;;21.57;;
2019;SDS011;1014;51.960;8.542;2022-08-11T01:08:30;23.67;;;22.17;;
2019;SDS011;1014;51.960;8.542;2022-08-11T01:11:13;24.33;;;22.90;;
2019;SDS011;1014;51.960;8.542;2022-08-11T01:27:56;23.30;;;22.10;;
2019;SDS011;1014;51.960;8.542;2022-08-11T01:30:42;23.73;;;22.27;;
2019;SDS011;1014;51.960;8.542;2022-08-11T01:38:57;22.47;;;21.27;;
2019;SDS011;1014;51.960;8.542;2022-08-11T01:41:31;22.67;;;21.40;;
2019;SDS011;1014;51.960;8.542;2022-08-11T01:44:31;24.30;;;22.70;;
2019;SDS011;1014;51.960;8.542;2022-08-11T01:47:14;24.60;;;23.30;;
2019;SDS011;1014;51.960;8.542;2022-08-11T01:50:01;23.60;;;22.40;;
2019;SDS011;1014;51.960;8.542;2022-08-11T01:52:33;24.20;;;22.80;;
2019;SDS011;1014;51.960;8.542;2022-08-11T01:55:06;23.70;;;22.50;;
2019;SDS011;1014;51.960;8.542;2022-08-11T01:57:36;22.20;;;21.20;;
2019;SDS011;1014;51.960;8.542;2022-08-11T02:00:06;23.20;;;21.37;;
2019;SDS011;1014;51.960;8.542;2022-08-11T02:02:40;22.33;;;21.13;;
2019;SDS011;1014;51.960;8.542;2022-08-11T02:07:59;23.97;;;22.70;;
2019;SDS011;1014;51.960;8.542;2022-08-11T02:10:32;22.90;;;21.80;;
2019;SDS011;1014;51.960;8.542;2022-08-11T02:13:22;22.43;;;21.23;;
2019;SDS011;1014;51.960;8.542;2022-08-11T02:15:53;22.40;;;21.30;;
2019;SDS011;1014;51.960;8.542;2022-08-11T02:18:22;22.67;;;21.33;;
2019;SDS011;1014;51.960;8.542;2022-08-11T02:21:10;23.80;;;22.50;;
2019;SDS011;1014;51.960;8.542;2022-08-11T02:23:57;23.10;;;21.90;;
2019;SDS011;1014;51.960;8.542;2022-08-11T02:26:30;23.40;;;22.07;;
2019;SDS011;1014;51.960;8.542;2022-08-11T02:29:02;23.80;;;22.50;;
2019;SDS011;1014;51.960;8.542;2022-08-11T02:31:44;24.33;;;23.00;;
2019;SDS011;1014;51.960;8.542;2022-08-11T02:34:34;22.63;;;21.43;;
2019;SDS011;1014;51.960;8.542;2022-08-11T02:37:10;23.90;;;22.50;;
2019;SDS011;1014;51.960;8.542;2022-08-11T02:39:45;23.23;;;22.03;;
2019;SDS011;1014;51.960;8.542;2022-08-11T02:42:20;23.53;;;22.33;;
2019;SDS011;1014;51.960;8.542;2022-08-11T02:44:55;23.13;;;21.73;;
2019;SDS011;1014;51.960;8.542;2022-08-11T02:47:28;23.47;;;22.23;;
2019;SDS011;1014;51.960;8.542;2022-08-11T02:50:00;23.27;;;21.83;;
2019;SDS011;1014;51.960;8.542;2022-08-11T02:52:29;22.23;;;21.13;;
2019;SDS011;1014;51.960;8.542;2022-08-11T02:57:48;24.00;;;22.37;;
2019;SDS011;1014;51.960;8.542;2022-08-11T03:00:17;22.90;;;21.70;;
2019;SDS011;1014;51.960;8.542;2022-08-11T03:02:47;22.77;;;21.63;;
2019;SDS011;1014;51.960;8.542;2022-08-11T03:05:31;22.53;;;21.43;;
2019;SDS011;1014;51.960;8.542;2022-08-11T03:10:54;22.50;;;21.20;;
2019;SDS011;1014;51.960;8.542;2022-08-11T03:13:42;22.90;;;21.60;;
2019;SDS011;1014;51.960;8.542;2022-08-11T03:16:31;23.13;;;21.30;;
2019;SDS011;1014;51.960;8.542;2022-08-11T03:19:32;22.67;;;21.47;;
2019;SDS011;1014;51.960;8.542;2022-08-11T03:22:04;23.33;;;22.23;;
2019;SDS011;1014;51.960;8.542;2022-08-11T03:24:52;23.00;;;21.70;;
2019;SDS011;1014;51.960;8.542;2022-08-11T03:27:32;22.10;;;20.97;;
2019;SDS011;1014;51.960;8.542;2022-08-11T03:30:04;22.87;;;21.57;;
2019;SDS011;1014;51.960;8.542;2022-08-11T03:32:34;23.30;;;22.10;;
2019;SDS011;1014;51.960;8.542;2022-08-11T03:35:04;23.00;;;21.80;;
2019;SDS011;1014;51.960;8.542;2022-08-11T03:37:35;24.07;;;22.77;;
2019;SDS011;1014;51.960;8.542;2022-08-11T03:40:24;22.93;;;21.73;;
2019;SDS011;1014;51.960;8.542;2022-08-11T03:43:17;23.07;;;21.87;;
2019;SDS011;1014;51.960;8.542;2022-08-11T03:45:51;23.47;;;22.37;;
2019;SDS011;1014;51.960;8.542;2022-08-11T03:48:24;23.33;;;22.03;;
2019;SDS011;1014;51.960;8.542;2022-08-11T03:51:01;23.40;;;22.20;;
2019;SDS011;1014;51.960;8.542;2022-08-11T03:53:34;22.27;;;21.07;;
2019;SDS011;1014;51.960;8.542;2022-08-11T03:56:12;22.07;;;20.90;;
2019;SDS011;1014;51.960;8.542;2022-08-11T04:12:37;22.70;;;21.50;;
2019;SDS011;1014;51.960;8.542;2022-08-11T04:15:13;22.53;;;21.23;;
2019;SDS011;1014;51.960;8.542;2022-08-11T04:18:19;25.10;;;23.50;;
2019;SDS011;1014;51.960;8.542;2022-08-11T04:21:00;23.27;;;21.83;;
2019;SDS011;1014;51.960;8.542;2022-08-11T04:29:22;22.97;;;21.77;;
2019;SDS011;1014;51.960;8.542;2022-08-11T04:31:59;22.27;;;21.07;;
2019;SDS011;1014;51.960;8.542;2022-08-11T04:34:35;21.50;;;20.40;;
2019;SDS011;1014;51.960;8.542;2022-08-11T04:37:17;22.87;;;21.47;;
2019;SDS011;1014;51.960;8.542;2022-08-11T04:40:10;23.37;;;21.90;;
2019;SDS011;1014;51.960;8.542;2022-08-11T04:51:47;22.10;;;20.90;;
2019;SDS011;1014;51.960;8.542;2022-08-11T04:54:44;22.37;;;21.07;;
2019;SDS011;1014;51.960;8.542;2022-08-11T04:57:36;21.20;;;20.10;;
2019;SDS011;1014;51.960;8.542;2022-08-11T05:00:24;21.60;;;20.40;;
2019;SDS011;1014;51.960;8.542;2022-08-11T05:06:06;21.93;;;20.43;;
2019;SDS011;1014;51.960;8.542;2022-08-11T05:17:08;20.90;;;19.80;;
2019;SDS011;1014;51.960;8.542;2022-08-11T05:19:54;22.33;;;21.23;;
2019;SDS011;1014;51.960;8.542;2022-08-11T05:22:41;22.50;;;21.13;;
2019;SDS011;1014;51.960;8.542;2022-08-11T05:25:28;23.07;;;21.67;;
2019;SDS011;1014;51.960;8.542;2022-08-11T05:28:14;22.37;;;21.17;;
2019;SDS011;1014;51.960;8.542;2022-08-11T05:31:02;22.30;;;21.10;;
2019;SDS011;1014;51.960;8.542;2022-08-11T05:33:50;23.23;;;21.93;;
2019;SDS011;1014;51.960;8.542;2022-08-11T05:36:36;21.40;;;20.30;;
2019;SDS011;1014;51.960;8.542;2022-08-11T05:39:10;23.17;;;21.90;;
2019;SDS011;1014;51.960;8.542;2022-08-11T05:41:56;23.13;;;21.83;;
2019;SDS011;1014;51.960;8.542;2022-08-11T05:44:43;22.90;;;21.60;;
2019;SDS011;1014;51.960;8.542;2022-08-11T05:47:28;22.70;;;21.40;;
2019;SDS011;1014;51.960;8.542;2022-08-11T05:50:16;23.73;;;22.53;;
2019;SDS011;1014;51.960;8.542;2022-08-11T05:53:02;24.80;;;22.70;;
2019;SDS011;1014;51.960;8.542;2022-08-11T05:55:47;23.83;;;22.43;;
2019;SDS011;1014;51.960;8.542;2022-08-11T05:58:33;22.70;;;21.40;;
2019;SDS011;1014;51.960;8.542;2022-08-11T06:01:02;23.03;;;21.70;;
2019;SDS011;1014;51.960;8.542;2022-08-11T06:03:31;22.50;;;21.30;;
2019;SDS011;1014;51.960;8.542;2022-08-11T06:06:21;22.93;;;21.57;;
2019;SDS011;1014;51.960;8.542;2022-08-11T06:08:49;22.90;;;21.57;;
2019;SDS011;1014;51.960;8.542;2022-08-11T06:11:21;22.70;;;21.23;;
2019;SDS011;1014;51.960;8.542;2022-08-11T06:13:49;22.70;;;21.50;;
2019;SDS011;1014;51.960;8.542;2022-08-11T06:16:20;22.97;;;21.67;;
2019;SDS011;1014;51.960;8.542;2022-08-11T06:18:48;22.00;;;20.87;;
2019;SDS011;1014;51.960;8.542;2022-08-11T06:21:16;22.53;;;21.30;;
2019;SDS011;1014;51.960;8.542;2022-08-11T06:23:45;21.40;;;20.10;;
2019;SDS011;1014;51.960;8.542;2022-08-11T06:26:13;22.03;;;20.83;;
2019;SDS011;1014;51.960;8.542;2022-08-11T06:28:42;21.83;;;20.60;;
2019;SDS011;1014;51.960;8.542;2022-08-11T06:31:10;22.23;;;21.03;;
2019;SDS011;1014;51.960;8.542;2022-08-11T06:33:39;21.83;;;20.40;;
2019;SDS011;1014;51.960;8.542;2022-08-11T06:36:15;21.67;;;20.50;;
2019;SDS011;1014;51.960;8.542;2022-08-11T06:38:51;22.57;;;21.37;;
2019;SDS011;1014;51.960;8.542;2022-08-11T06:41:20;21.93;;;20.57;;
2019;SDS011;1014;51.960;8.542;2022-08-11T06:44:06;22.63;;;21.33;;
2019;SDS011;1014;51.960;8.542;2022-08-11T06:46:36;22.80;;;21.47;;
2019;SDS011;1014;51.960;8.542;2022-08-11T06:49:04;23.13;;;21.50;;
2019;SDS011;1014;51.960;8.542;2022-08-11T06:51:52;22.63;;;21.40;;
2019;SDS011;1014;51.960;8.542;2022-08-11T06:54:20;22.33;;;21.13;;
2019;SDS011;1014;51.960;8.542;2022-08-11T06:56:49;22.50;;;21.20;;
2019;SDS011;1014;51.960;8.542;2022-08-11T06:59:34;22.00;;;20.80;;
2019;SDS011;1014;51.960;8.542;2022-08-11T07:02:21;22.60;;;21.30;;
2019;SDS011;1014;51.960;8.542;2022-08-11T07:04:51;22.57;;;21.30;;
2019;SDS011;1014;51.960;8.542;2022-08-11T07:07:39;22.77;;;21.37;;
2019;SDS011;1014;51.960;8.542;2022-08-11T07:10:44;23.30;;;21.90;;
2019;SDS011;1014;51.960;8.542;2022-08-11T07:13:32;23.17;;;21.77;;
2019;SDS011;1014;51.960;8.542;2022-08-11T07:16:27;22.87;;;21.57;;
2019;SDS011;1014;51.960;8.542;2022-08-11T07:18:57;22.97;;;21.57;;
2019;SDS011;1014;51.960;8.542;2022-08-11T07:21:43;22.70;;;21.40;;
2019;SDS011;1014;51.960;8.542;2022-08-11T07:24:30;24.00;;;22.53;;
2019;SDS011;1014;51.960;8.542;2022-08-11T07:27:18;24.80;;;23.23;;
2019;SDS011;1014;51.960;8.542;2022-08-11T07:30:01;24.73;;;23.33;;
2019;SDS011;1014;51.960;8.542;2022-08-11T07:32:29;24.17;;;22.87;;
2019;SDS011;1014;51.960;8.542;2022-08-11T07:34:58;25.13;;;23.60;;
2019;SDS011;1014;51.960;8.542;2022-08-11T07:37:29;24.43;;;23.13;;
2019;SDS011;1014;51.960;8.542;2022-08-11T07:39:58;24.93;;;23.53;;
2019;SDS011;1014;51.960;8.542;2022-08-11T07:42:29;25.10;;;23.60;;
2019;SDS011;1014;51.960;8.542;2022-08-11T07:44:58;24.60;;;23.20;;
2019;SDS011;1014;51.960;8.542;2022-08-11T07:47:43;24.53;;;23.13;;
2019;SDS011;1014;51.960;8.542;2022-08-11T07:50:29;26.10;;;24.03;;
2019;SDS011;1014;51.960;8.542;2022-08-11T07:53:14;24.50;;;23.20;;
2019;SDS011;1014;51.960;8.542;2022-08-11T07:55:43;24.40;;;22.90;;
2019;SDS011;1014;51.960;8.542;2022-08-11T07:58:12;24.00;;;22.50;;
2019;SDS011;1014;51.960;8.542;2022-08-11T08:00:57;25.10;;;23.70;;
2019;SDS011;1014;51.960;8.542;2022-08-11T08:03:42;24.63;;;23.23;;
2019;SDS011;1014;51.960;8.542;2022-08-11T08:06:28;25.37;;;23.97;;
2019;SDS011;1014;51.960;8.542;2022-08-11T08:09:13;25.07;;;23.67;;
2019;SDS011;1014;51.960;8.542;2022-08-11T08:12:01;26.80;;;25.10;;
2019;SDS011;1014;51.960;8.542;2022-08-11T08:14:48;25.47;;;23.87;;
2019;SDS011;1014;51.960;8.542;2022-08-11T08:17:33;25.30;;;23.70;;
2019;SDS011;1014;51.960;8.542;2022-08-11T08:20:22;25.83;;;24.43;;
2019;SDS011;1014;51.960;8.542;2022-08-11T08:22:50;24.27;;;22.93;;
2019;SDS011;1014;51.960;8.542;2022-08-11T08:25:20;24.27;;;22.97;;
2019;SDS011;1014;51.960;8.542;2022-08-11T08:27:49;24.00;;;22.53;;
2019;SDS011;1014;51.960;8.542;2022-08-11T08:30:18;25.53;;;24.00;;
2019;SDS011;1014;51.960;8.542;2022-08-11T08:33:03;25.27;;;23.63;;
2019;SDS011;1014;51.960;8.542;2022-08-11T08:35:31;26.13;;;24.37;;
2019;SDS011;1014;51.960;8.542;2022-08-11T08:37:59;26.20;;;24.50;;
2019;SDS011;1014;51.960;8.542;2022-08-11T08:40:27;24.43;;;23.07;;
2019;SDS011;1014;51.960;8.542;2022-08-11T08:42:55;24.27;;;22.87;;
2019;SDS011;1014;51.960;8.542;2022-08-11T08:45:25;24.93;;;23.50;;
2019;SDS011;1014;51.960;8.542;2022-08-11T08:47:56;25.80;;;24.37;;
2019;SDS011;1014;51.960;8.542;2022-08-11T08:50:26;25.80;;;23.90;;
2019;SDS011;1014;51.960;8.542;2022-08-11T08:53:16;25.00;;;23.50;;
2019;SDS011;1014;51.960;8.542;2022-08-11T08:55:46;25.40;;;24.00;;
2019;SDS011;1014;51.960;8.542;2022-08-11T08:58:18;25.77;;;24.20;;
2019;SDS011;1014;51.960;8.542;2022-08-11T09:00:48;26.63;;;24.30;;
2019;SDS011;1014;51.960;8.542;2022-08-11T09:03:16;25.27;;;23.57;;
2019;SDS011;1014;51.960;8.542;2022-08-11T09:05:44;25.90;;;23.77;;
2019;SDS011;1014;51.960;8.542;2022-08-11T09:08:12;25.00;;;23.57;;
2019;SDS011;1014;51.960;8.542;2022-08-11T09:10:40;25.67;;;24.20;;
2019;SDS011;1014;51.960;8.542;2022-08-11T09:13:07;25.73;;;24.00;;
2019;SDS011;1014;51.960;8.542;2022-08-11T09:15:35;24.50;;;23.17;;
2019;SDS011;1014;51.960;8.542;2022-08-11T09:18:05;24.83;;;23.23;;
2019;SDS011;1014;51.960;8.542;2022-08-11T09:20:35;24.23;;;22.80;;
2019;SDS011;1014;51.960;8.542;2022-08-11T09:23:04;25.60;;;24.10;;
2019;SDS011;1014;51.960;8.542;2022-08-11T09:25:50;25.77;;;24.23;;
2019;SDS011;1014;51.960;8.542;2022-08-11T09:28:36;25.70;;;24.10;;
2019;SDS011;1014;51.960;8.542;2022-08-11T09:31:04;26.83;;;25.03;;
2019;SDS011;1014;51.960;8.542;2022-08-11T09:33:33;26.77;;;25.10;;
2019;SDS011;1014;51.960;8.542;2022-08-11T09:36:01;26.60;;;25.00;;
2019;SDS011;1014;51.960;8.542;2022-08-11T09:38:50;27.00;;;25.40;;
2019;SDS011;1014;51.960;8.542;2022-08-11T09:41:35;26.50;;;24.93;;
2019;SDS011;1014;51.960;8.542;2022-08-11T09:44:03;26.07;;;24.53;;
2019;SDS011;1014;51.960;8.542;2022-08-11T09:46:50;25.43;;;23.90;;
2019;SDS011;1014;51.960;8.542;2022-08-11T09:49:20;25.80;;;24.30;;
2019;SDS011;1014;51.960;8.542;2022-08-11T09:51:48;25.80;;;24.40;;
2019;SDS011;1014;51.960;8.542;2022-08-11T09:54:15;25.87;;;24.03;;
2019;SDS011;1014;51.960;8.542;2022-08-11T09:56:44;27.00;;;25.43;;
2019;SDS011;1014;51.960;8.542;2022-08-11T09:59:29;25.80;;;24.40;;
2019;SDS011;1014;51.960;8.542;2022-08-11T10:01:57;26.80;;;25.20;;
2019;SDS011;1014;51.960;8.542;2022-08-11T10:04:32;26.40;;;24.80;;
2019;SDS011;1014;51.960;8.542;2022-08-11T10:07:02;25.60;;;23.90;;
2019;SDS011;1014;51.960;8.542;2022-08-11T10:09:35;26.50;;;24.90;;
2019;SDS011;1014;51.960;8.542;2022-08-11T10:12:05;25.60;;;23.87;;
2019;SDS011;1014;51.960;8.542;2022-08-11T10:14:34;26.30;;;24.40;;
2019;SDS011;1014;51.960;8.542;2022-08-11T10:17:21;25.60;;;24.00;;
2019;SDS011;1014;51.960;8.542;2022-08-11T10:19:50;26.43;;;24.73;;
2019;SDS011;1014;51.960;8.542;2022-08-11T10:22:21;26.47;;;24.90;;
2019;SDS011;1014;51.960;8.542;2022-08-11T10:25:06;26.90;;;25.40;;
2019;SDS011;1014;51.960;8.542;2022-08-11T10:27:52;26.73;;;25.20;;
2019;SDS011;1014;51.960;8.542;2022-08-11T10:30:22;25.67;;;24.17;;
2019;SDS011;1014;51.960;8.542;2022-08-11T10:33:08;26.37;;;24.87;;
2019;SDS011;1014;51.960;8.542;2022-08-11T10:35:55;26.30;;;24.80;;
2019;SDS011;1014;51.960;8.542;2022-08-11T10:38:23;26.23;;;24.63;;
2019;SDS011;1014;51.960;8.542;2022-08-11T10:40:51;25.93;;;24.37;;
2019;SDS011;1014;51.960;8.542;2022-08-11T10:43:34;27.27;;;25.70;;
2019;SDS011;1014;51.960;8.542;2022-08-11T10:46:04;26.17;;;24.47;;
2019;SDS011;1014;51.960;8.542;2022-08-11T10:48:50;25.90;;;24.50;;
2019;SDS011;1014;51.960;8.542;2022-08-11T10:51:19;25.70;;;24.30;;
2019;SDS011;1014;51.960;8.542;2022-08-11T10:54:00;25.63;;;24.10;;
2019;SDS011;1014;51.960;8.542;2022-08-11T10:56:45;26.00;;;24.30;;
2019;SDS011;1014;51.960;8.542;2022-08-11T10:59:30;26.43;;;24.67;;
2019;SDS011;1014;51.960;8.542;2022-08-11T11:02:00;25.50;;;23.90;;
2019;SDS011;1014;51.960;8.542;2022-08-11T11:04:28;24.73;;;23.33;;
2019;SDS011;1014;51.960;8.542;2022-08-11T11:07:02;26.27;;;24.57;;
2019;SDS011;1014;51.960;8.542;2022-08-11T11:09:31;24.90;;;23.40;;
2019;SDS011;1014;51.960;8.542;2022-08-11T11:12:00;25.30;;;23.80;;
2019;SDS011;1014;51.960;8.542;2022-08-11T11:14:52;24.53;;;23.20;;
2019;SDS011;1014;51.960;8.542;2022-08-11T11:17:39;24.77;;;23.37;;
2019;SDS011;1014;51.960;8.542;2022-08-11T11:20:26;25.63;;;24.13;;
2019;SDS011;1014;51.960;8.542;2022-08-11T11:22:58;25.40;;;23.97;;
2019;SDS011;1014;51.960;8.542;2022-08-11T11:25:31;25.03;;;23.73;;
2019;SDS011;1014;51.960;8.542;2022-08-11T11:30:44;25.30;;;23.90;;
2019;SDS011;1014;51.960;8.542;2022-08-11T11:33:16;25.40;;;23.80;;
2019;SDS011;1014;51.960;8.542;2022-08-11T11:35:49;25.33;;;23.93;;
2019;SDS011;1014;51.960;8.542;2022-08-11T11:38:20;25.47;;;23.97;;
2019;SDS011;1014;51.960;8.542;2022-08-11T11:40:47;25.30;;;23.90;;
2019;SDS011;1014;51.960;8.542;2022-08-11T11:43:35;26.10;;;24.60;;
2019;SDS011;1014;51.960;8.542;2022-08-11T11:46:03;25.63;;;24.10;;
2019;SDS011;1014;51.960;8.542;2022-08-11T11:48:31;25.27;;;23.87;;
2019;SDS011;1014;51.960;8.542;2022-08-11T11:51:00;24.77;;;23.33;;
2019;SDS011;1014;51.960;8.542;2022-08-11T11:53:28;24.73;;;23.30;;
2019;SDS011;1014;51.960;8.542;2022-08-11T11:55:56;24.40;;;23.00;;
2019;SDS011;1014;51.960;8.542;2022-08-11T11:58:24;25.20;;;23.80;;
2019;SDS011;1014;51.960;8.542;2022-08-11T12:01:10;24.57;;;23.07;;
2019;SDS011;1014;51.960;8.542;2022-08-11T12:03:48;24.67;;;23.20;;
2019;SDS011;1014;51.960;8.542;2022-08-11T12:06:17;25.80;;;23.90;;
2019;SDS011;1014;51.960;8.542;2022-08-11T12:08:47;24.73;;;23.30;;
2019;SDS011;1014;51.960;8.542;2022-08-11T12:11:15;24.80;;;23.33;;
2019;SDS011;1014;51.960;8.542;2022-08-11T12:14:01;24.90;;;23.33;;
2019;SDS011;1014;51.960;8.542;2022-08-11T12:16:29;25.67;;;24.17;;
2019;SDS011;1014;51.960;8.542;2022-08-11T12:18:57;26.00;;;24.10;;
2019;SDS011;1014;51.960;8.542;2022-08-11T12:21:25;24.60;;;23.10;;
2019;SDS011;1014;51.960;8.542;2022-08-11T12:23:55;24.60;;;23.20;;
2019;SDS011;1014;51.960;8.542;2022-08-11T12:26:41;25.60;;;24.20;;
2019;SDS011;1014;51.960;8.542;2022-08-11T12:29:26;24.93;;;23.40;;
2019;SDS011;1014;51.960;8.542;2022-08-11T12:31:54;25.20;;;23.50;;
2019;SDS011;1014;51.960;8.542;2022-08-11T12:34:22;25.00;;;23.40;;
2019;SDS011;1014;51.960;8.542;2022-08-11T12:36:54;25.87;;;24.30;;
2019;SDS011;1014;51.960;8.542;2022-08-11T12:39:24;26.90;;;25.30;;
2019;SDS011;1014;51.960;8.542;2022-08-11T12:42:05;25.60;;;24.00;;
2019;SDS011;1014;51.960;8.542;2022-08-11T12:44:51;25.90;;;24.50;;
2019;SDS011;1014;51.960;8.542;2022-08-11T12:47:36;25.50;;;23.80;;
2019;SDS011;1014;51.960;8.542;2022-08-11T12:50:24;25.47;;;23.90;;
2019;SDS011;1014;51.960;8.542;2022-08-11T12:53:09;26.77;;;25.00;;
2019;SDS011;1014;51.960;8.542;2022-08-11T12:55:39;26.30;;;24.80;;
2019;SDS011;1014;51.960;8.542;2022-08-11T12:58:25;27.20;;;25.40;;
2019;SDS011;1014;51.960;8.542;2022-08-11T13:00:53;26.27;;;24.60;;
2019;SDS011;1014;51.960;8.542;2022-08-11T13:03:38;25.87;;;24.27;;
2019;SDS011;1014;51.960;8.542;2022-08-11T13:06:23;26.60;;;24.90;;
2019;SDS011;1014;51.960;8.542;2022-08-11T13:08:50;26.20;;;24.73;;
2019;SDS011;1014;51.960;8.542;2022-08-11T13:11:20;26.90;;;25.30;;
2019;SDS011;1014;51.960;8.542;2022-08-11T13:14:13;25.90;;;24.50;;
2019;SDS011;1014;51.960;8.542;2022-08-11T13:16:42;26.70;;;25.10;;
2019;SDS011;1014;51.960;8.542;2022-08-11T13:19:32;25.40;;;23.90;;
2019;SDS011;1014;51.960;8.542;2022-08-11T13:22:00;26.10;;;24.60;;
2019;SDS011;1014;51.960;8.542;2022-08-11T13:24:31;25.90;;;24.40;;
2019;SDS011;1014;51.960;8.542;2022-08-11T13:27:01;26.27;;;24.77;;
2019;SDS011;1014;51.960;8.542;2022-08-11T13:29:28;27.10;;;25.53;;
2019;SDS011;1014;51.960;8.542;2022-08-11T13:31:56;25.00;;;23.60;;
2019;SDS011;1014;51.960;8.542;2022-08-11T13:34:25;26.70;;;25.10;;
2019;SDS011;1014;51.960;8.542;2022-08-11T13:36:53;25.70;;;24.20;;
2019;SDS011;1014;51.960;8.542;2022-08-11T13:39:21;26.80;;;25.10;;
2019;SDS011;1014;51.960;8.542;2022-08-11T13:41:49;26.33;;;24.57;;
2019;SDS011;1014;51.960;8.542;2022-08-11T13:44:18;25.63;;;24.03;;
2019;SDS011;1014;51.960;8.542;2022-08-11T13:46:47;25.20;;;23.70;;
2019;SDS011;1014;51.960;8.542;2022-08-11T13:49:15;25.63;;;23.93;;
2019;SDS011;1014;51.960;8.542;2022-08-11T13:51:43;24.53;;;23.03;;
2019;SDS011;1014;51.960;8.542;2022-08-11T13:54:14;24.77;;;23.27;;
2019;SDS011;1014;51.960;8.542;2022-08-11T13:56:43;25.13;;;23.37;;
2019;SDS011;1014;51.960;8.542;2022-08-11T13:59:11;26.90;;;25.10;;
2019;SDS011;1014;51.960;8.542;2022-08-11T14:01:43;24.40;;;22.80;;
2019;SDS011;1014;51.960;8.542;2022-08-11T14:04:13;25.57;;;23.73;;
2019;SDS011;1014;51.960;8.542;2022-08-11T14:06:43;24.63;;;23.13;;
2019;SDS011;1014;51.960;8.542;2022-08-11T14:09:11;24.30;;;22.87;;
2019;SDS011;1014;51.960;8.542;2022-08-11T14:11:40;24.40;;;23.00;;
2019;SDS011;1014;51.960;8.542;2022-08-11T14:14:26;24.03;;;22.63;;
2019;SDS011;1014;51.960;8.542;2022-08-11T14:16:56;24.03;;;22.53;;
2019;SDS011;1014;51.960;8.542;2022-08-11T14:19:25;24.53;;;22.83;;
2019;SDS011;1014;51.960;8.542;2022-08-11T14:21:52;24.40;;;22.90;;
2019;SDS011;1014;51.960;8.542;2022-08-11T14:24:32;23.47;;;21.93;;
2019;SDS011;1014;51.960;8.542;2022-08-11T14:27:00;23.33;;;21.90;;
2019;SDS011;1014;51.960;8.542;2022-08-11T14:29:28;24.97;;;23.53;;
2019;SDS011;1014;51.960;8.542;2022-08-11T14:31:59;24.80;;;23.30;;
2019;SDS011;1014;51.960;8.542;2022-08-11T14:34:27;25.00;;;23.50;;
2019;SDS011;1014;51.960;8.542;2022-08-11T14:36:57;24.73;;;23.33;;
2019;SDS011;1014;51.960;8.542;2022-08-11T14:39:25;24.80;;;23.40;;
2019;SDS011;1014;51.960;8.542;2022-08-11T14:41:53;22.97;;;21.67;;
2019;SDS011;1014;51.960;8.542;2022-08-11T14:44:38;24.83;;;23.40;;
2019;SDS011;1014;51.960;8.542;2022-08-11T14:47:34;23.33;;;22.10;;
2019;SDS011;1014;51.960;8.542;2022-08-11T14:50:03;24.80;;;23.20;;
2019;SDS011;1014;51.960;8.542;2022-08-11T14:52:32;23.77;;;22.37;;
2019;SDS011;1014;51.960;8.542;2022-08-11T14:55:00;24.87;;;23.43;;
2019;SDS011;1014;51.960;8.542;2022-08-11T14:57:45;24.37;;;22.87;;
2019;SDS011;1014;51.960;8.542;2022-08-11T15:00:14;24.60;;;23.20;;
2019;SDS011;1014;51.960;8.542;2022-08-11T15:02:44;24.37;;;22.97;;
2019;SDS011;1014;51.960;8.542;2022-08-11T15:05:26;24.27;;;22.67;;
2019;SDS011;1014;51.960;8.542;2022-08-11T15:07:54;25.20;;;23.60;;
2019;SDS011;1014;51.960;8.542;2022-08-11T15:10:22;23.80;;;22.40;;
2019;SDS011;1014;51.960;8.542;2022-08-11T15:12:49;25.33;;;23.20;;
2019;SDS011;1014;51.960;8.542;2022-08-11T15:15:17;24.37;;;22.80;;
2019;SDS011;1014;51.960;8.542;2022-08-11T15:18:05;25.20;;;23.60;;
2019;SDS011;1014;51.960;8.542;2022-08-11T15:20:33;24.30;;;22.70;;
2019;SDS011;1014;51.960;8.542;2022-08-11T15:23:20;24.20;;;22.70;;
2019;SDS011;1014;51.960;8.542;2022-08-11T15:26:14;23.80;;;22.30;;
2019;SDS011;1014;51.960;8.542;2022-08-11T15:28:44;24.00;;;22.60;;
2019;SDS011;1014;51.960;8.542;2022-08-11T15:31:29;23.87;;;22.47;;
2019;SDS011;1014;51.960;8.542;2022-08-11T15:34:16;23.83;;;22.37;;
2019;SDS011;1014;51.960;8.542;2022-08-11T15:37:02;23.93;;;22.53;;
2019;SDS011;1014;51.960;8.542;2022-08-11T15:39:50;22.97;;;21.60;;
2019;SDS011;1014;51.960;8.542;2022-08-11T15:42:37;23.50;;;22.10;;
2019;SDS011;1014;51.960;8.542;2022-08-11T15:45:24;23.20;;;21.83;;
2019;SDS011;1014;51.960;8.542;2022-08-11T15:48:09;24.63;;;22.83;;
2019;SDS011;1014;51.960;8.542;2022-08-11T15:50:40;24.03;;;22.43;;
2019;SDS011;1014;51.960;8.542;2022-08-11T15:53:10;22.80;;;21.40;;
2019;SDS011;1014;51.960;8.542;2022-08-11T15:55:38;24.17;;;22.50;;
2019;SDS011;1014;51.960;8.542;2022-08-11T15:58:07;23.80;;;22.20;;
2019;SDS011;1014;51.960;8.542;2022-08-11T16:00:53;23.93;;;22.53;;
2019;SDS011;1014;51.960;8.542;2022-08-11T16:03:40;24.23;;;22.63;;
2019;SDS011;1014;51.960;8.542;2022-08-11T16:06:27;24.70;;;23.17;;
2019;SDS011;1014;51.960;8.542;2022-08-11T16:08:56;23.90;;;22.50;;
2019;SDS011;1014;51.960;8.542;2022-08-11T16:11:27;24.07;;;22.67;;
2019;SDS011;1014;51.960;8.542;2022-08-11T16:13:56;23.70;;;22.37;;
2019;SDS011;1014;51.960;8.542;2022-08-11T16:16:42;24.97;;;22.87;;
2019;SDS011;1014;51.960;8.542;2022-08-11T16:19:10;25.70;;;23.80;;
2019;SDS011;1014;51.960;8.542;2022-08-11T16:21:40;24.60;;;23.13;;
2019;SDS011;1014;51.960;8.542;2022-08-11T16:24:09;25.37;;;23.83;;
2019;SDS011;1014;51.960;8.542;2022-08-11T16:26:38;25.37;;;23.97;;
2019;SDS011;1014;51.960;8.542;2022-08-11T16:29:06;26.03;;;24.63;;
2019;SDS011;1014;51.960;8.542;2022-08-11T16:31:34;25.57;;;24.07;;
2019;SDS011;1014;51.960;8.542;2022-08-11T16:34:02;25.97;;;24.43;;
2019;SDS011;1014;51.960;8.542;2022-08-11T16:36:51;26.00;;;24.40;;
2019;SDS011;1014;51.960;8.542;2022-08-11T16:39:36;25.17;;;23.60;;
2019;SDS011;1014;51.960;8.542;2022-08-11T16:42:04;25.27;;;23.50;;
2019;SDS011;1014;51.960;8.542;2022-08-11T16:45:00;24.53;;;23.23;;
2019;SDS011;1014;51.960;8.542;2022-08-11T16:47:45;25.23;;;23.43;;
2019;SDS011;1014;51.960;8.542;2022-08-11T16:50:13;24.57;;;23.07;;
2019;SDS011;1014;51.960;8.542;2022-08-11T16:52:43;25.73;;;24.23;;
2019;SDS011;1014;51.960;8.542;2022-08-11T16:55:10;24.90;;;23.40;;
2019;SDS011;1014;51.960;8.542;2022-08-11T16:57:38;26.27;;;24.67;;
2019;SDS011;1014;51.960;8.542;2022-08-11T17:00:24;25.43;;;23.73;;
2019;SDS011;1014;51.960;8.542;2022-08-11T17:02:52;25.50;;;23.97;;